Terminal Aerodrome Forecast
Issued by NWS

Home | Current Version | Previous Version | Graphics & Text | Print | Product List | Glossary On
Versions: 1 2 3 4 5 6 7 8 9 10 11 12 13 14 15 16 17 18 19 20 21 22 23
000
FTUS42 KMHX 290900 AAA
TAFOAJ
TAF AMD
KOAJ 290932Z 2910/3006 00000KT 3SM BR BKN003
     FM291200 35005KT P6SM SCT050 BKN100
     FM291700 35005KT P6SM VCSH SCT025 OVC050
     FM300000 01005KT 5SM -RA SCT020 OVC040
      AMD LTD TO CLD VIS AND WIND=

USA.gov is the U.S. government's official web portal to all federal, state and local government web resources and services.